Time;durP1;ratioP1;P1;durP2;ratioP2;P2;SDS_P1;SDS_P2;PMS_P1;PMS_P2;Temp;Humidity;BMP_temperature;BMP_pressure;BME280_temperature;BME280_humidity;BME280_pressure;Samples;Min_cycle;Max_cycle;Signal;HPM_P1;HPM_P2
2022/09/22 00:00:32;;;;;;;;;;;;;;;20.93;46.63;102084.69;5135351;27;19934;-38
2022/09/22 00:02:58;;;;;;;;;;;;;;;20.92;46.62;102085.81;5137599;27;20319;-38
2022/09/22 00:05:23;;;;;;;;;;;;;;;20.93;46.74;102083.88;5136685;27;20417;-38
2022/09/22 00:07:49;;;;;;;;;;;;;;;20.93;46.85;102081.09;5130547;27;19955;-38
2022/09/22 00:10:17;;;;;;;;;;;;;;;20.93;46.89;102081.09;5134115;27;20177;-37
2022/09/22 00:12:45;;;;;;;;;;;;;;;20.93;46.73;102087.47;5138796;27;20014;-38
2022/09/22 00:15:10;;;;;;;;;;;;;;;20.91;46.80;102083.31;5133744;27;20030;-37
2022/09/22 00:17:36;;;;;;;;;;;;;;;20.93;46.56;102081.09;5131666;27;20190;-37
2022/09/22 00:20:02;;;;;;;;;;;;;;;20.94;46.73;102091.06;5132569;27;19978;-38
2022/09/22 00:22:27;;;;;;;;;;;;;;;20.91;46.75;102088.84;5131736;27;19923;-38
2022/09/22 00:24:53;;;;;;;;;;;;;;;20.90;46.87;102081.66;5136105;27;19962;-38
2022/09/22 00:27:18;;;;;;;;;;;;;;;20.91;46.69;102078.59;5132575;27;20020;-37
2022/09/22 00:29:44;;;;;;;;;;;;;;;20.91;46.63;102086.91;5136905;27;19931;-38
2022/09/22 00:32:09;;;;;;;;;;;;;;;20.93;46.69;102089.41;5136571;27;19923;-38
2022/09/22 00:34:35;;;;;;;;;;;;;;;20.93;46.87;102086.63;5135836;27;19936;-38
2022/09/22 00:37:01;;;;;;;;;;;;;;;20.92;46.91;102079.44;5132462;27;19924;-38
2022/09/22 00:39:29;;;;;;;;;;;;;;;20.92;46.75;102084.97;5133899;27;20387;-37
2022/09/22 00:41:55;;;;;;;;;;;;;;;20.91;46.91;102080.53;5135153;27;19973;-38
2022/09/22 00:44:26;;;;;;;;;;;;;;;20.91;46.61;102083.31;5133272;27;20042;-37
2022/09/22 00:47:11;;;;;;;;;;;;;;;20.91;46.84;102080.53;5134815;27;20014;-37
2022/09/22 00:49:42;;;;;;;;;;;;;;;20.90;46.91;102074.19;5135201;27;19959;-38
2022/09/22 00:52:07;;;;;;;;;;;;;;;20.91;46.82;102077.78;5137355;27;20388;-37
2022/09/22 00:54:33;;;;;;;;;;;;;;;20.90;46.93;102074.19;5136971;27;19949;-38
2022/09/22 00:57:15;;;;;;;;;;;;;;;20.91;46.95;102075.00;5135652;27;20269;-38
2022/09/22 00:59:40;;;;;;;;;;;;;;;20.91;46.78;102080.53;5138185;27;20013;-37
2022/09/22 01:02:06;;;;;;;;;;;;;;;20.91;46.91;102073.06;5132567;27;19942;-37
2022/09/22 01:04:32;;;;;;;;;;;;;;;20.90;46.79;102068.63;5131804;27;20551;-38
2022/09/22 01:06:57;;;;;;;;;;;;;;;20.90;46.82;102063.09;5132539;27;19931;-38
2022/09/22 01:09:23;;;;;;;;;;;;;;;20.91;46.89;102058.41;5133382;27;19923;-38
2022/09/22 01:11:48;;;;;;;;;;;;;;;20.90;46.89;102054.78;5133136;27;20294;-38
2022/09/22 01:14:19;;;;;;;;;;;;;;;20.90;46.81;102059.50;5139539;27;19988;-38
2022/09/22 01:16:48;;;;;;;;;;;;;;;20.89;46.80;102055.03;5122869;27;20022;-38
2022/09/22 01:19:27;;;;;;;;;;;;;;;20.88;46.92;102048.66;5139274;27;20550;-38
2022/09/22 01:24:46;;;;;;;;;;;;;;;20.90;46.80;102046.50;5178374;27;20026;-36
2022/09/22 01:27:22;;;;;;;;;;;;;;;20.91;46.88;102044.56;5164163;27;21435;-36
2022/09/22 01:30:08;;;;;;;;;;;;;;;20.90;46.89;102043.72;5164698;27;20298;-36
2022/09/22 01:32:37;;;;;;;;;;;;;;;20.89;46.84;102041.19;5146238;27;19974;-38
2022/09/22 01:35:04;;;;;;;;;;;;;;;20.90;46.81;102037.34;5166091;27;20345;-38
2022/09/22 01:37:36;;;;;;;;;;;;;;;20.88;46.83;102037.59;5160437;27;20069;-37
2022/09/22 01:40:19;;;;;;;;;;;;;;;20.88;47.00;102045.91;5165668;27;20064;-38
2022/09/22 01:42:46;;;;;;;;;;;;;;;20.89;46.84;102038.44;5147849;27;19962;-37
2022/09/22 01:45:13;;;;;;;;;;;;;;;20.89;46.83;102038.44;5143113;27;20027;-38
2022/09/22 01:47:39;;;;;;;;;;;;;;;20.88;46.86;102034.81;5141326;27;20065;-38
2022/09/22 01:50:09;;;;;;;;;;;;;;;20.89;46.81;102035.66;5143824;27;19973;-38
2022/09/22 01:52:35;;;;;;;;;;;;;;;20.87;46.99;102024.84;5144634;27;19966;-38
2022/09/22 01:55:03;;;;;;;;;;;;;;;20.87;46.91;102030.41;5143572;27;20323;-38
2022/09/22 01:57:33;;;;;;;;;;;;;;;20.87;46.94;102024.84;5140571;27;20006;-38
2022/09/22 02:00:00;;;;;;;;;;;;;;;20.87;46.94;102030.41;5139902;27;19955;-38
2022/09/22 02:02:30;;;;;;;;;;;;;;;20.88;46.94;102023.75;5137210;27;20011;-37
2022/09/22 02:04:56;;;;;;;;;;;;;;;20.86;46.99;102020.44;5142603;27;20010;-38
2022/09/22 02:07:23;;;;;;;;;;;;;;;20.87;47.07;102012.94;5136828;27;19925;-38
2022/09/22 02:09:49;;;;;;;;;;;;;;;20.87;46.91;102019.31;5143876;27;20013;-38
2022/09/22 02:12:17;;;;;;;;;;;;;;;20.86;47.06;102012.13;5144197;27;20045;-38
2022/09/22 02:14:43;;;;;;;;;;;;;;;20.84;47.04;102011.53;5140287;27;20006;-37
2022/09/22 02:17:08;;;;;;;;;;;;;;;20.85;46.92;102013.19;5142521;27;19923;-38
2022/09/22 02:19:36;;;;;;;;;;;;;;;20.85;46.92;102010.44;5140387;27;19935;-38
2022/09/22 02:22:02;;;;;;;;;;;;;;;20.85;47.01;102007.66;5140372;27;19932;-38
2022/09/22 02:24:29;;;;;;;;;;;;;;;20.87;46.90;102011.00;5142845;27;20438;-38
2022/09/22 02:26:56;;;;;;;;;;;;;;;20.88;46.72;102011.84;5145048;27;20017;-38
2022/09/22 02:29:21;;;;;;;;;;;;;;;20.86;46.82;102006.59;5143473;27;20179;-38
2022/09/22 02:31:47;;;;;;;;;;;;;;;20.86;46.92;102011.28;5141504;27;19932;-37
2022/09/22 02:34:12;;;;;;;;;;;;;;;20.86;46.98;102012.13;5139171;27;19938;-38
2022/09/22 02:36:42;;;;;;;;;;;;;;;20.87;46.96;102004.66;5129631;28;19924;-38
2022/09/22 02:39:09;;;;;;;;;;;;;;;20.87;47.09;102010.19;5126643;28;20417;-38
2022/09/22 02:41:38;;;;;;;;;;;;;;;20.85;46.93;102004.88;5129487;28;20367;-38
2022/09/22 02:44:05;;;;;;;;;;;;;;;20.85;47.00;102007.66;5127825;28;20057;-38
2022/09/22 02:46:36;;;;;;;;;;;;;;;20.85;46.94;102004.88;5122429;28;20015;-38
2022/09/22 02:49:03;;;;;;;;;;;;;;;20.85;46.97;102004.06;5123875;28;19951;-38
2022/09/22 02:51:28;;;;;;;;;;;;;;;20.87;46.98;102007.41;5128521;28;19931;-38
2022/09/22 02:53:54;;;;;;;;;;;;;;;20.86;46.92;102003.81;5129070;28;19931;-38
2022/09/22 02:56:20;;;;;;;;;;;;;;;20.87;46.98;102004.66;5126886;28;19923;-37
2022/09/22 02:58:45;;;;;;;;;;;;;;;20.85;47.00;102002.13;5127013;28;19924;-38
2022/09/22 03:01:11;;;;;;;;;;;;;;;20.87;46.96;102001.88;5129388;28;19928;-38
2022/09/22 03:03:36;;;;;;;;;;;;;;;20.86;46.91;101995.50;5127884;28;19931;-38
2022/09/22 03:06:02;;;;;;;;;;;;;;;20.86;46.92;101998.28;5118834;28;20369;-38
2022/09/22 03:08:27;;;;;;;;;;;;;;;20.87;46.89;101997.16;5125676;28;19932;-38
2022/09/22 03:10:53;;;;;;;;;;;;;;;20.88;46.89;101992.47;5125113;28;19931;-38
2022/09/22 03:13:18;;;;;;;;;;;;;;;20.87;47.12;101980.56;5129253;28;19943;-38
2022/09/22 03:15:44;;;;;;;;;;;;;;;20.87;46.87;101985.25;5124966;28;19962;-38
2022/09/22 03:18:10;;;;;;;;;;;;;;;20.86;47.01;101978.91;5124637;28;19932;-38
2022/09/22 03:20:35;;;;;;;;;;;;;;;20.87;47.12;101986.09;5126984;28;19923;-38
2022/09/22 03:23:01;;;;;;;;;;;;;;;20.86;47.06;101984.44;5129139;28;19932;-38
2022/09/22 03:25:26;;;;;;;;;;;;;;;20.86;47.01;101978.91;5129641;28;19947;-38
2022/09/22 03:27:52;;;;;;;;;;;;;;;20.85;47.03;101979.97;5126394;28;19931;-38
2022/09/22 03:30:18;;;;;;;;;;;;;;;20.87;47.18;101980.56;5127362;28;19927;-38
2022/09/22 03:32:43;;;;;;;;;;;;;;;20.85;46.70;101971.66;5127015;28;20369;-38
2022/09/22 03:35:09;;;;;;;;;;;;;;;20.87;47.03;101974.19;5126749;28;19932;-38
2022/09/22 03:37:34;;;;;;;;;;;;;;;20.86;47.07;101972.53;5126482;28;19930;-38
2022/09/22 03:40:00;;;;;;;;;;;;;;;20.85;46.96;101977.22;5128362;28;19991;-38
2022/09/22 03:42:26;;;;;;;;;;;;;;;20.85;47.04;101971.66;5128355;28;19939;-38
2022/09/22 03:44:52;;;;;;;;;;;;;;;20.84;46.98;101970.00;5126226;28;19927;-38
2022/09/22 03:47:18;;;;;;;;;;;;;;;20.85;47.07;101968.91;5121599;27;19981;-38
2022/09/22 03:49:43;;;;;;;;;;;;;;;20.85;47.05;101976.38;5127531;28;20007;-38
2022/09/22 03:52:09;;;;;;;;;;;;;;;20.85;47.05;101973.59;5126073;28;19943;-38
2022/09/22 03:54:35;;;;;;;;;;;;;;;20.83;47.23;101973.06;5127476;28;19963;-38
2022/09/22 03:57:01;;;;;;;;;;;;;;;20.85;47.10;101976.38;5126786;28;20047;-38
2022/09/22 03:59:27;;;;;;;;;;;;;;;20.84;47.06;101972.78;5127029;28;20178;-38
2022/09/22 04:01:52;;;;;;;;;;;;;;;20.82;47.07;101969.44;5125190;28;19946;-38
2022/09/22 04:04:23;;;;;;;;;;;;;;;20.83;47.11;101965.56;5126140;28;19927;-38
2022/09/22 04:06:49;;;;;;;;;;;;;;;20.84;47.02;101961.69;5123304;28;20334;-38
2022/09/22 04:09:16;;;;;;;;;;;;;;;20.84;47.09;101966.41;5126990;28;20281;-38
2022/09/22 04:11:42;;;;;;;;;;;;;;;20.85;47.12;101959.75;5126705;28;20018;-38
2022/09/22 04:14:08;;;;;;;;;;;;;;;20.84;47.20;101961.69;5126740;28;20037;-38
2022/09/22 04:16:33;;;;;;;;;;;;;;;20.83;47.01;101962.81;5125460;28;20512;-38
2022/09/22 04:18:59;;;;;;;;;;;;;;;20.83;47.15;101953.69;5126122;28;19923;-38
2022/09/22 04:21:25;;;;;;;;;;;;;;;20.83;47.21;101953.69;5128556;28;19951;-38
2022/09/22 04:23:50;;;;;;;;;;;;;;;20.83;47.10;101954.50;5128622;28;20277;-38
2022/09/22 04:26:16;;;;;;;;;;;;;;;20.84;47.03;101963.63;5124526;27;19987;-38
2022/09/22 04:28:41;;;;;;;;;;;;;;;20.83;47.28;101960.03;5128728;28;19931;-38
2022/09/22 04:31:07;;;;;;;;;;;;;;;20.81;47.04;101956.69;5127399;28;20269;-38
2022/09/22 04:33:33;;;;;;;;;;;;;;;20.80;47.21;101955.84;5127946;28;19923;-37
2022/09/22 04:35:58;;;;;;;;;;;;;;;20.80;47.30;101952.25;5122995;28;19984;-37
2022/09/22 04:38:24;;;;;;;;;;;;;;;20.82;47.25;101954.78;5128649;28;19931;-37
2022/09/22 04:40:51;;;;;;;;;;;;;;;20.82;47.05;101952.84;5124493;28;20300;-38
2022/09/22 04:43:16;;;;;;;;;;;;;;;20.80;47.24;101955.84;5126935;28;20437;-38
2022/09/22 04:45:43;;;;;;;;;;;;;;;20.80;46.95;101953.09;5121578;28;20474;-37
2022/09/22 04:48:09;;;;;;;;;;;;;;;20.80;47.08;101964.16;5116410;28;19934;-37
2022/09/22 04:50:35;;;;;;;;;;;;;;;20.82;47.18;101954.78;5121212;28;19923;-38
2022/09/22 04:53:00;;;;;;;;;;;;;;;20.48;47.14;101955.91;5126622;28;20170;-41
2022/09/22 04:55:27;;;;;;;;;;;;;;;20.47;47.59;101962.53;5117913;28;20281;-37
2022/09/22 04:57:54;;;;;;;;;;;;;;;20.67;47.38;101961.88;5123991;27;20026;-37
2022/09/22 05:00:20;;;;;;;;;;;;;;;20.76;47.33;101963.03;5124153;28;19930;-37
2022/09/22 05:02:46;;;;;;;;;;;;;;;20.77;47.76;101956.41;5121170;27;20453;-37
2022/09/22 05:05:11;;;;;;;;;;;;;;;20.78;47.57;101955.31;5122747;28;19930;-37
2022/09/22 05:07:45;;;;;;;;;;;;;;;20.81;47.79;101959.47;5119290;28;19928;-37
2022/09/22 05:10:11;;;;;;;;;;;;;;;20.81;47.54;101965.00;5120149;28;20402;-37
2022/09/22 05:12:38;;;;;;;;;;;;;;;20.80;47.55;101964.16;5122191;28;20433;-37
2022/09/22 05:15:04;;;;;;;;;;;;;;;20.80;47.49;101964.16;5123111;28;20011;-37
2022/09/22 05:17:29;;;;;;;;;;;;;;;20.82;47.54;101957.56;5121375;28;20035;-37
2022/09/22 05:19:55;;;;;;;;;;;;;;;20.82;47.47;101965.84;5125708;28;19954;-37
2022/09/22 05:22:21;;;;;;;;;;;;;;;20.78;46.35;101962.78;5125471;28;20354;-37
2022/09/22 05:24:47;;;;;;;;;;;;;;;20.76;46.01;101964.97;5120230;27;19971;-37
2022/09/22 05:27:13;;;;;;;;;;;;;;;20.75;45.57;101972.44;5121303;27;19927;-37
2022/09/22 05:29:39;;;;;;;;;;;;;;;20.73;45.12;101969.13;5124685;28;19938;-37
2022/09/22 05:32:05;;;;;;;;;;;;;;;20.70;44.98;101969.66;5117877;27;20033;-37
2022/09/22 05:34:30;;;;;;;;;;;;;;;20.72;45.68;101974.91;5121516;27;19935;-36
2022/09/22 05:36:56;;;;;;;;;;;;;;;20.71;44.69;101976.84;5120787;28;19923;-36
2022/09/22 05:39:21;;;;;;;;;;;;;;;20.71;45.51;101982.38;5122825;28;20379;-37
2022/09/22 05:41:48;;;;;;;;;;;;;;;20.71;45.00;101981.53;5120771;28;19928;-37
2022/09/22 05:44:14;;;;;;;;;;;;;;;20.70;44.94;101977.94;5122305;27;20429;-36
2022/09/22 05:46:40;;;;;;;;;;;;;;;20.75;45.90;101977.16;5121750;27;19978;-37
2022/09/22 05:49:05;;;;;;;;;;;;;;;20.75;45.56;101975.22;5120969;28;19924;-38
2022/09/22 05:51:31;;;;;;;;;;;;;;;20.76;44.96;101978.81;5123543;28;19924;-38
2022/09/22 05:53:56;;;;;;;;;;;;;;;20.78;45.49;101983.00;5122224;28;19930;-38
2022/09/22 05:56:22;;;;;;;;;;;;;;;20.79;46.08;101981.06;5115331;28;20471;-38
2022/09/22 05:58:48;;;;;;;;;;;;;;;20.79;45.79;101973.56;5120325;28;20438;-37
2022/09/22 06:01:13;;;;;;;;;;;;;;;20.78;45.34;101973.84;5120346;28;19924;-38
2022/09/22 06:03:39;;;;;;;;;;;;;;;20.78;45.85;101976.63;5114518;28;19935;-37
2022/09/22 06:06:05;;;;;;;;;;;;;;;20.75;45.68;101977.97;5110694;28;19963;-37
2022/09/22 06:08:30;;;;;;;;;;;;;;;20.79;45.45;101973.56;5116649;28;19923;-37
2022/09/22 06:10:56;;;;;;;;;;;;;;;20.82;45.61;101988.00;5117247;27;19951;-38
2022/09/22 06:13:21;;;;;;;;;;;;;;;20.83;46.19;101975.81;5127816;28;19976;-38
2022/09/22 06:15:47;;;;;;;;;;;;;;;20.83;46.13;101979.41;5116622;28;19932;-38
2022/09/22 06:18:14;;;;;;;;;;;;;;;20.83;46.56;101978.59;5119659;27;20015;-37
2022/09/22 06:20:40;;;;;;;;;;;;;;;20.80;46.40;101977.19;5116733;28;19931;-37
2022/09/22 06:23:07;;;;;;;;;;;;;;;20.80;46.39;101968.88;5111951;27;19931;-38
2022/09/22 06:25:33;;;;;;;;;;;;;;;20.82;46.74;101977.75;5113677;28;20022;-37
2022/09/22 06:28:00;;;;;;;;;;;;;;;20.53;46.07;101985.56;5116043;28;19942;-37
2022/09/22 06:30:26;;;;;;;;;;;;;;;20.74;46.00;101983.78;5119792;28;20420;-37
2022/09/22 06:32:53;;;;;;;;;;;;;;;20.79;46.08;101976.34;5116301;28;19954;-38
2022/09/22 06:35:18;;;;;;;;;;;;;;;20.80;46.27;101972.47;5118764;28;20768;-38
2022/09/22 06:37:46;;;;;;;;;;;;;;;20.80;45.60;101978.00;5115248;28;19932;-38
2022/09/22 06:40:12;;;;;;;;;;;;;;;20.79;44.85;101973.56;5121279;28;20043;-38
2022/09/22 06:42:42;;;;;;;;;;;;;;;20.78;45.30;101982.16;5116064;27;19977;-38
2022/09/22 06:45:08;;;;;;;;;;;;;;;20.79;45.05;101983.81;5120301;28;19936;-38
2022/09/22 06:47:33;;;;;;;;;;;;;;;20.80;44.98;101986.31;5109570;28;19938;-38
2022/09/22 06:50:04;;;;;;;;;;;;;;;20.83;45.37;101978.59;5111753;28;19935;-38
2022/09/22 06:52:30;;;;;;;;;;;;;;;20.86;45.84;101984.44;5112739;28;20014;-38
2022/09/22 06:55:00;;;;;;;;;;;;;;;20.85;45.38;101976.38;5113123;28;20155;-38
2022/09/22 06:57:31;;;;;;;;;;;;;;;20.86;45.58;101984.44;5109849;28;20026;-38
2022/09/22 06:59:58;;;;;;;;;;;;;;;20.85;45.86;101982.75;5107954;28;20065;-38
2022/09/22 07:02:28;;;;;;;;;;;;;;;20.87;45.58;101980.56;5102357;28;20035;-38
2022/09/22 07:04:57;;;;;;;;;;;;;;;20.86;45.96;101975.31;5110121;28;20011;-38
2022/09/22 07:07:27;;;;;;;;;;;;;;;20.88;45.92;101973.91;5099497;27;19927;-38
2022/09/22 07:09:53;;;;;;;;;;;;;;;20.87;45.61;101971.41;5101464;27;21155;-38
2022/09/22 07:12:21;;;;;;;;;;;;;;;20.89;45.81;101974.75;5109442;27;20022;-38
2022/09/22 07:14:48;;;;;;;;;;;;;;;20.88;45.89;101973.91;5118667;28;20018;-38
2022/09/22 07:17:15;;;;;;;;;;;;;;;20.58;44.15;101973.69;5113313;28;19923;-41
2022/09/22 07:19:40;;;;;;;;;;;;;;;20.78;44.98;101973.84;5107417;28;20216;-39
2022/09/22 07:22:06;;;;;;;;;;;;;;;20.85;45.58;101974.44;5113396;28;19931;-39
2022/09/22 07:24:32;;;;;;;;;;;;;;;20.86;45.19;101970.59;5098473;28;20378;-39
2022/09/22 07:27:03;;;;;;;;;;;;;;;20.85;45.24;101973.59;5116394;28;20049;-39
2022/09/22 07:29:29;;;;;;;;;;;;;;;20.88;45.79;101970.31;5109626;28;20026;-39
2022/09/22 07:31:58;;;;;;;;;;;;;;;20.86;45.51;101970.59;5108633;28;19928;-39
2022/09/22 07:34:25;;;;;;;;;;;;;;;20.89;46.13;101975.56;5106232;27;20036;-38
2022/09/22 07:36:51;;;;;;;;;;;;;;;20.88;45.68;101970.31;5105950;27;19927;-38
2022/09/22 07:39:16;;;;;;;;;;;;;;;20.90;45.91;101974.50;5107980;28;19938;-39
2022/09/22 07:41:42;;;;;;;;;;;;;;;20.90;46.06;101968.13;5114332;27;19923;-39
2022/09/22 07:46:54;;;;;;;;;;;;;;;20.57;45.53;101975.63;5107237;27;20050;-39
2022/09/22 07:49:21;;;;;;;;;;;;;;;20.76;44.98;101967.72;5107072;28;19963;-39
2022/09/22 07:51:47;;;;;;;;;;;;;;;20.83;45.04;101973.06;5105822;27;21638;-39
2022/09/22 07:54:12;;;;;;;;;;;;;;;20.85;45.29;101968.91;5114658;28;20338;-38
2022/09/22 07:56:39;;;;;;;;;;;;;;;20.86;45.19;101970.59;5106322;28;19932;-39
2022/09/22 07:59:07;;;;;;;;;;;;;;;20.48;44.94;101975.28;5112202;28;20230;-39
2022/09/22 08:01:33;;;;;;;;;;;;;;;20.78;45.21;101971.09;5099799;27;20006;-39
2022/09/22 08:03:59;;;;;;;;;;;;;;;20.86;45.26;101967.00;5103840;27;20284;-38
2022/09/22 08:06:24;;;;;;;;;;;;;;;20.87;45.18;101972.25;5100616;27;20004;-38
2022/09/22 08:08:52;;;;;;;;;;;;;;;20.92;45.05;101961.19;5114246;28;19927;-38
2022/09/22 08:11:19;;;;;;;;;;;;;;;20.93;45.48;101968.41;5111072;27;20030;-38
2022/09/22 08:13:48;;;;;;;;;;;;;;;20.91;45.36;101967.84;5106540;28;20007;-38
2022/09/22 08:16:16;;;;;;;;;;;;;;;20.93;45.62;101960.09;5105134;28;20116;-39
2022/09/22 08:18:42;;;;;;;;;;;;;;;20.94;45.88;101964.56;5108788;28;19966;-38
2022/09/22 08:21:07;;;;;;;;;;;;;;;20.96;45.95;101967.88;5102757;27;20270;-38
2022/09/22 08:23:33;;;;;;;;;;;;;;;20.96;46.18;101967.03;5109692;27;19923;-39
2022/09/22 08:26:07;;;;;;;;;;;;;;;20.95;46.11;101968.16;5107436;28;20035;-38
2022/09/22 08:28:33;;;;;;;;;;;;;;;20.89;45.90;101966.44;5107239;28;19928;-39
2022/09/22 08:30:59;;;;;;;;;;;;;;;20.95;45.99;101954.31;5087779;28;20370;-38
2022/09/22 08:33:25;;;;;;;;;;;;;;;20.94;45.94;101967.31;5095443;28;20771;-38
2022/09/22 08:35:55;;;;;;;;;;;;;;;20.94;45.86;101960.91;5102087;28;20038;-37
2022/09/22 08:38:22;;;;;;;;;;;;;;;20.94;45.84;101964.56;5106167;28;20026;-37
2022/09/22 08:40:54;;;;;;;;;;;;;;;20.94;45.45;101961.78;5107836;28;20437;-37
2022/09/22 08:43:20;;;;;;;;;;;;;;;20.90;45.17;101963.41;5108178;28;19970;-37
2022/09/22 08:45:45;;;;;;;;;;;;;;;20.94;45.91;101967.31;5106382;27;19934;-38
2022/09/22 08:53:47;;;;;;;;;;;;;;;20.93;45.26;101962.88;5095190;27;20303;-39
2022/09/22 08:56:30;;;;;;;;;;;;;;;20.93;45.61;101964.81;5090028;28;19973;-39
2022/09/22 08:59:00;;;;;;;;;;;;;;;20.94;45.68;101967.31;5119827;28;20030;-38
2022/09/22 09:04:22;;;;;;;;;;;;;;;20.95;45.77;101968.16;5154441;27;20346;-38
2022/09/22 09:06:50;;;;;;;;;;;;;;;20.95;45.24;101968.16;5118340;27;20641;-37
2022/09/22 09:09:36;;;;;;;;;;;;;;;20.94;45.59;101967.31;5134741;27;20019;-37
2022/09/22 09:12:21;;;;;;;;;;;;;;;20.95;45.88;101959.84;5111980;27;20035;-37
2022/09/22 09:14:54;;;;;;;;;;;;;;;20.95;45.74;101960.69;5119131;27;20037;-37
2022/09/22 09:17:22;;;;;;;;;;;;;;;20.95;45.78;101966.22;5129403;27;20394;-37
2022/09/22 09:19:49;;;;;;;;;;;;;;;20.96;45.54;101955.97;5113602;27;19966;-37
2022/09/22 09:22:23;;;;;;;;;;;;;;;20.93;45.88;101965.63;5124868;27;20023;-37
2022/09/22 09:24:53;;;;;;;;;;;;;;;20.96;45.91;101962.34;5133276;27;20054;-37
2022/09/22 09:27:39;;;;;;;;;;;;;;;20.99;45.82;101964.56;5111971;27;19923;-38
2022/09/22 09:30:09;;;;;;;;;;;;;;;20.99;45.91;101966.53;5127945;27;20030;-37
2022/09/22 09:32:51;;;;;;;;;;;;;;;20.97;45.69;101963.16;5128497;27;20062;-38
2022/09/22 09:35:23;;;;;;;;;;;;;;;20.99;45.87;101961.81;5123382;27;19931;-39
2022/09/22 09:37:48;;;;;;;;;;;;;;;21.01;46.21;101961.53;5113979;27;20101;-41
2022/09/22 09:40:16;;;;;;;;;;;;;;;21.00;45.97;101960.69;5122681;27;19938;-40
2022/09/22 09:42:43;;;;;;;;;;;;;;;20.91;45.03;101955.94;5108394;27;20212;-44
2022/09/22 09:45:16;;;;;;;;;;;;;;;21.04;45.87;101952.69;5124133;27;20030;-40
2022/09/22 09:47:48;;;;;;;;;;;;;;;21.03;45.84;101949.09;5126796;27;19924;-39
2022/09/22 09:50:14;;;;;;;;;;;;;;;21.03;46.03;101951.88;5128409;27;20035;-39
2022/09/22 09:52:41;;;;;;;;;;;;;;;21.01;46.20;101950.44;5128180;27;19965;-40
2022/09/22 09:55:15;;;;;;;;;;;;;;;21.01;46.25;101947.69;5133837;27;20227;-39
2022/09/22 09:57:59;;;;;;;;;;;;;;;21.00;46.16;101937.72;5125005;27;20038;-39
2022/09/22 10:00:32;;;;;;;;;;;;;;;21.01;45.99;101942.16;5130336;27;21250;-41
2022/09/22 10:03:04;;;;;;;;;;;;;;;21.01;46.23;101934.66;5131211;27;20349;-39
2022/09/22 10:05:31;;;;;;;;;;;;;;;21.05;46.18;101932.19;5124078;27;19931;-40
2022/09/22 10:07:57;;;;;;;;;;;;;;;21.07;46.00;101929.16;5127328;27;20374;-40
2022/09/22 10:10:38;;;;;;;;;;;;;;;21.08;46.01;101933.59;5131144;27;20053;-40
2022/09/22 10:15:41;;;;;;;;;;;;;;;21.06;46.33;101922.78;5146382;27;20214;-37
2022/09/22 10:18:26;;;;;;;;;;;;;;;21.04;46.28;101911.16;5152998;27;20385;-38
2022/09/22 10:21:00;;;;;;;;;;;;;;;21.04;46.44;101917.53;5141341;27;19931;-38
2022/09/22 10:23:26;;;;;;;;;;;;;;;21.05;46.37;101913.63;5150410;27;20460;-37
2022/09/22 10:25:52;;;;;;;;;;;;;;;21.04;46.57;101913.91;5155558;27;19934;-37
2022/09/22 10:28:18;;;;;;;;;;;;;;;21.02;46.48;101908.63;5155111;27;19931;-38
2022/09/22 10:30:56;;;;;;;;;;;;;;;21.04;46.35;101906.44;5154416;27;20006;-37
2022/09/22 10:33:22;;;;;;;;;;;;;;;21.04;46.57;101911.16;5133505;27;19922;-37
2022/09/22 10:36:07;;;;;;;;;;;;;;;21.05;46.58;101910.03;5152325;27;20353;-38
2022/09/22 10:38:38;;;;;;;;;;;;;;;21.06;46.41;101906.16;5141653;27;19930;-37
2022/09/22 10:41:07;;;;;;;;;;;;;;;21.05;46.55;101899.78;5133513;27;19953;-39
2022/09/22 10:43:43;;;;;;;;;;;;;;;21.07;46.43;101899.53;5151521;27;19997;-40
2022/09/22 10:46:28;;;;;;;;;;;;;;;21.08;46.36;101900.38;5144461;27;19937;-40
2022/09/22 10:48:59;;;;;;;;;;;;;;;21.09;46.65;101893.72;5135965;27;20053;-39
2022/09/22 10:51:44;;;;;;;;;;;;;;;21.09;46.49;101890.94;5153897;27;20468;-39
2022/09/22 10:54:16;;;;;;;;;;;;;;;21.08;46.83;101892.88;5138018;27;20010;-40
2022/09/22 10:56:43;;;;;;;;;;;;;;;21.11;46.63;101886.78;5133202;27;20022;-39
2022/09/22 10:59:31;;;;;;;;;;;;;;;21.08;46.19;101887.34;5152606;27;20013;-39
2022/09/22 11:02:17;;;;;;;;;;;;;;;21.04;46.48;101878.75;5138417;27;20353;-39
2022/09/22 11:04:48;;;;;;;;;;;;;;;21.07;46.69;101888.47;5140767;27;20035;-39
2022/09/22 11:13:03;;;;;;;;;;;;;;;20.83;45.89;101876.16;5137791;27;20033;-39
2022/09/22 11:15:32;;;;;;;;;;;;;;;21.00;45.63;101879.56;5144713;27;19945;-39
2022/09/22 11:18:01;;;;;;;;;;;;;;;21.04;45.78;101875.16;5145515;27;20031;-39
2022/09/22 11:20:27;;;;;;;;;;;;;;;21.08;45.94;101864.38;5154193;27;20022;-39
2022/09/22 11:22:58;;;;;;;;;;;;;;;21.13;46.05;101873.50;5151603;27;20161;-39
2022/09/22 11:25:28;;;;;;;;;;;;;;;21.13;46.09;101861.59;5151817;27;19991;-39
2022/09/22 11:27:59;;;;;;;;;;;;;;;21.14;45.69;101863.28;5131381;27;20035;-39
2022/09/22 11:30:25;;;;;;;;;;;;;;;21.10;45.74;101860.19;5135111;27;20030;-39
2022/09/22 11:33:11;;;;;;;;;;;;;;;21.10;45.66;101849.13;5134627;27;19923;-39
2022/09/22 11:35:41;;;;;;;;;;;;;;;21.14;45.46;101858.56;5118193;27;20010;-39
2022/09/22 11:38:27;;;;;;;;;;;;;;;21.11;44.46;101852.72;5129589;27;20018;-39
2022/09/22 11:41:13;;;;;;;;;;;;;;;21.11;43.24;101841.66;5117446;27;20034;-39
2022/09/22 11:43:41;;;;;;;;;;;;;;;21.12;43.63;101840.56;5129639;27;20490;-39
2022/09/22 11:46:09;;;;;;;;;;;;;;;21.10;44.49;101838.03;5122221;27;20509;-39
2022/09/22 11:48:39;;;;;;;;;;;;;;;21.10;43.84;101838.03;5126553;27;19938;-40
2022/09/22 11:51:09;;;;;;;;;;;;;;;21.11;43.70;101836.94;5117716;27;19998;-40
2022/09/22 11:56:41;;;;;;;;;;;;;;;21.13;44.23;101831.13;5159633;27;20365;-37
2022/09/22 11:59:11;;;;;;;;;;;;;;;21.13;44.75;101826.44;5127223;27;20018;-37
2022/09/22 12:01:37;;;;;;;;;;;;;;;21.14;44.28;101821.72;5139666;27;20388;-37
2022/09/22 12:04:07;;;;;;;;;;;;;;;21.12;44.44;101816.47;5131664;27;20411;-37
2022/09/22 12:06:35;;;;;;;;;;;;;;;21.13;44.07;101806.22;5139203;27;20075;-40
2022/09/22 12:09:02;;;;;;;;;;;;;;;21.15;44.33;101804.00;5143702;27;19929;-39
2022/09/22 12:11:27;;;;;;;;;;;;;;;21.17;44.52;101815.66;5146233;27;19970;-39
2022/09/22 12:13:54;;;;;;;;;;;;;;;21.16;44.52;101806.50;5145352;27;20015;-39
2022/09/22 12:16:21;;;;;;;;;;;;;;;21.16;43.54;101800.97;5148870;27;20375;-39
2022/09/22 12:19:07;;;;;;;;;;;;;;;21.14;43.78;101805.94;5139438;27;20006;-39
2022/09/22 12:24:16;;;;;;;;;;;;;;;21.14;43.97;101799.56;5157034;27;20005;-38
2022/09/22 12:26:42;;;;;;;;;;;;;;;21.19;44.25;101791.25;5152183;27;19928;-37
2022/09/22 12:29:19;;;;;;;;;;;;;;;21.20;43.86;101796.53;5144764;27;20132;-37
2022/09/22 12:31:47;;;;;;;;;;;;;;;21.21;44.35;101791.84;5144275;27;20017;-37
2022/09/22 12:34:14;;;;;;;;;;;;;;;21.20;44.07;101788.22;5126812;27;20425;-39
2022/09/22 12:36:40;;;;;;;;;;;;;;;21.21;44.25;101787.13;5135485;27;20010;-39
2022/09/22 12:39:13;;;;;;;;;;;;;;;21.21;44.48;101792.66;5137479;27;19957;-39
2022/09/22 12:41:43;;;;;;;;;;;;;;;21.20;44.02;101779.06;5130247;27;20254;-40
2022/09/22 12:44:11;;;;;;;;;;;;;;;21.24;45.24;101774.63;5132064;27;19923;-39
2022/09/22 12:46:37;;;;;;;;;;;;;;;21.22;44.37;101779.63;5147808;27;20022;-39
2022/09/22 12:49:06;;;;;;;;;;;;;;;21.18;43.99;101773.81;5146968;27;20014;-39
2022/09/22 12:51:32;;;;;;;;;;;;;;;21.16;41.94;101777.97;5148121;27;19923;-39
2022/09/22 12:54:17;;;;;;;;;;;;;;;21.17;43.20;101774.91;5147982;27;19923;-39
2022/09/22 12:56:45;;;;;;;;;;;;;;;21.16;43.61;101776.03;5137606;27;19927;-39
2022/09/22 12:59:31;;;;;;;;;;;;;;;21.14;42.57;101782.94;5127389;27;19927;-39
2022/09/22 13:02:14;;;;;;;;;;;;;;;21.15;42.50;101770.75;5130912;27;19989;-39
2022/09/22 13:04:40;;;;;;;;;;;;;;;21.16;42.68;101775.22;5144953;27;19942;-39
2022/09/22 13:07:26;;;;;;;;;;;;;;;21.15;43.02;101766.03;5140976;27;19935;-39
2022/09/22 13:10:11;;;;;;;;;;;;;;;21.21;44.18;101764.13;5129449;27;19942;-39